createdAt,value
2019-04-01T00:01:47.060Z,12.03
2019-04-01T00:04:17.062Z,12.03
2019-04-01T00:06:46.991Z,12.13
2019-04-01T00:09:16.584Z,11.00
2019-04-01T00:11:46.528Z,10.80
2019-04-01T00:14:17.494Z,10.23
2019-04-01T00:16:47.473Z,9.85
2019-04-01T00:19:17.705Z,9.98
2019-04-01T00:21:47.659Z,10.00
2019-04-01T00:24:17.588Z,9.50
2019-04-01T00:26:47.539Z,9.75
2019-04-01T00:29:17.539Z,10.08
2019-04-01T00:31:47.460Z,10.75
2019-04-01T00:34:17.415Z,10.30
2019-04-01T00:36:47.342Z,10.88
2019-04-01T00:39:17.260Z,10.50
2019-04-01T00:41:49.046Z,10.53
2019-04-01T00:44:18.997Z,9.85
2019-04-01T00:46:48.935Z,10.43
2019-04-01T00:49:18.859Z,10.95
2019-04-01T00:51:48.963Z,10.10
2019-04-01T00:54:18.916Z,10.85
2019-04-01T00:56:48.853Z,10.10
2019-04-01T00:59:18.823Z,11.40
2019-04-01T01:01:48.925Z,10.13
2019-04-01T01:04:19.183Z,9.80
2019-04-01T01:06:49.215Z,10.63
2019-04-01T01:09:19.273Z,10.70
2019-04-01T01:11:49.329Z,10.80
2019-04-01T01:14:19.295Z,10.82
2019-04-01T01:16:51.276Z,10.65
2019-04-01T01:19:21.193Z,10.38
2019-04-01T01:21:51.153Z,9.90
2019-04-01T01:24:21.427Z,10.55
2019-04-01T01:26:51.475Z,8.98
2019-04-01T01:29:21.561Z,9.95
2019-04-01T01:31:51.802Z,9.80
2019-04-01T01:34:22.399Z,8.65
2019-04-01T01:36:52.636Z,9.00
2019-04-01T01:39:22.564Z,7.95
2019-04-01T01:41:52.543Z,7.80
2019-04-01T01:44:22.546Z,7.72
2019-04-01T01:46:52.576Z,6.83
2019-04-01T01:49:22.503Z,6.62
2019-04-01T01:51:52.709Z,7.20
2019-04-01T01:54:22.627Z,6.53
2019-04-01T01:56:52.579Z,6.70
2019-04-01T01:59:22.542Z,6.60
2019-04-01T02:01:52.468Z,6.72
2019-04-01T02:04:22.460Z,6.97
2019-04-01T02:06:52.063Z,7.30
2019-04-01T02:09:21.945Z,6.22
2019-04-01T02:11:51.886Z,7.17
2019-04-01T02:14:21.818Z,7.12
2019-04-01T02:16:51.449Z,6.95
2019-04-01T02:19:21.348Z,7.17
2019-04-01T02:21:51.359Z,7.00
2019-04-01T02:24:20.995Z,7.12
2019-04-01T02:26:52.793Z,6.50
2019-04-01T02:29:22.732Z,6.45
2019-04-01T02:31:52.747Z,6.28
2019-04-01T02:34:22.804Z,6.00
2019-04-01T02:36:53.753Z,6.00
2019-04-01T02:39:23.490Z,5.00
2019-04-01T02:41:53.405Z,6.00
2019-04-01T02:44:24.512Z,6.35
2019-04-01T02:46:54.496Z,6.58
2019-04-01T02:49:24.522Z,5.53
2019-04-01T02:51:54.466Z,5.53
2019-04-01T02:54:24.623Z,5.72
2019-04-01T02:56:54.625Z,6.42
2019-04-01T02:59:24.664Z,5.92
2019-04-01T03:01:54.663Z,6.00
2019-04-01T03:04:24.609Z,5.78
2019-04-01T03:06:54.658Z,5.17
2019-04-01T03:09:24.581Z,5.37
2019-04-01T03:11:54.665Z,5.33
2019-04-01T03:14:24.605Z,5.47
2019-04-01T03:16:54.686Z,5.42
2019-04-01T03:19:24.673Z,5.67
2019-04-01T03:21:54.664Z,5.25
2019-04-01T03:24:24.625Z,5.35
2019-04-01T03:26:54.560Z,5.75
2019-04-01T03:29:24.648Z,5.45
2019-04-01T03:31:54.750Z,5.37
2019-04-01T03:34:24.820Z,5.00
2019-04-01T03:36:54.760Z,5.62
2019-04-01T03:39:24.691Z,4.70
2019-04-01T03:41:54.652Z,4.58
2019-04-01T03:44:24.653Z,5.40
2019-04-01T03:46:55.666Z,5.25
2019-04-01T03:49:25.713Z,5.22
2019-04-01T03:51:55.662Z,5.35
2019-04-01T03:54:25.678Z,5.42
2019-04-01T03:56:55.702Z,5.25
2019-04-01T03:59:25.680Z,5.87
2019-04-01T04:01:55.707Z,5.40
2019-04-01T04:04:25.795Z,5.53
2019-04-01T04:06:55.796Z,4.90
2019-04-01T04:09:25.747Z,5.47
2019-04-01T04:11:55.776Z,5.65
2019-04-01T04:14:25.738Z,5.25
2019-04-01T04:16:55.765Z,5.72
2019-04-01T04:19:25.702Z,5.78
2019-04-01T04:21:55.672Z,5.85
2019-04-01T04:24:26.052Z,5.70
2019-04-01T04:26:55.994Z,5.97
2019-04-01T04:29:26.455Z,5.42
2019-04-01T04:31:56.385Z,6.05
2019-04-01T04:34:26.387Z,5.95
2019-04-01T04:36:56.315Z,5.50
2019-04-01T04:39:26.468Z,6.00
2019-04-01T04:41:56.398Z,5.55
2019-04-01T04:44:26.401Z,5.58
2019-04-01T04:46:56.446Z,5.78
2019-04-01T04:49:26.476Z,5.33
2019-04-01T04:51:56.525Z,5.37
2019-04-01T04:54:26.451Z,5.12
2019-04-01T04:56:56.659Z,5.80
2019-04-01T04:59:26.618Z,6.17
2019-04-01T05:01:56.560Z,5.08
2019-04-01T05:04:26.523Z,5.28
2019-04-01T05:06:56.455Z,6.03
2019-04-01T05:09:26.490Z,5.55
2019-04-01T05:11:56.419Z,6.05
2019-04-01T05:14:26.580Z,5.72
2019-04-01T05:16:56.529Z,5.87
2019-04-01T05:19:26.623Z,5.90
2019-04-01T05:21:57.747Z,6.15
2019-04-01T05:24:28.143Z,5.62
2019-04-01T05:26:59.439Z,5.40
2019-04-01T05:29:31.430Z,5.55
2019-04-01T05:32:03.401Z,5.80
2019-04-01T05:34:36.052Z,5.37
2019-04-01T05:37:08.752Z,5.35
2019-04-01T05:39:37.698Z,6.00
2019-04-01T05:42:07.803Z,16.35
2019-04-01T05:44:38.271Z,7.03
2019-04-01T05:47:08.339Z,5.62
2019-04-01T05:49:38.373Z,6.12
2019-04-01T05:52:08.765Z,5.15
2019-04-01T05:54:38.390Z,5.37
2019-04-01T05:57:08.329Z,5.78
2019-04-01T05:59:38.447Z,5.28
2019-04-01T06:02:08.370Z,5.90
2019-04-01T06:04:38.890Z,4.45
2019-04-01T06:07:08.802Z,4.80
2019-04-01T06:09:38.826Z,4.67
2019-04-01T06:12:09.025Z,4.75
2019-04-01T06:14:39.473Z,5.12
2019-04-01T06:17:09.389Z,5.28
2019-04-01T06:19:39.358Z,5.25
2019-04-01T06:22:09.360Z,5.97
2019-04-01T06:24:39.321Z,5.17
2019-04-01T06:27:10.783Z,5.00
2019-04-01T06:29:41.208Z,4.78
2019-04-01T06:32:11.293Z,4.72
2019-04-01T06:34:52.254Z,3.90
2019-04-01T06:37:12.867Z,3.80
2019-04-01T06:39:42.583Z,4.08
2019-04-01T06:42:12.606Z,4.35
2019-04-01T06:44:42.633Z,3.72
2019-04-01T06:47:12.960Z,4.85
2019-04-01T06:49:42.915Z,4.35
2019-04-01T06:52:12.838Z,4.72
2019-04-01T06:54:43.042Z,4.72
2019-04-01T06:57:13.002Z,4.03
2019-04-01T06:59:43.211Z,4.35
2019-04-01T07:02:13.267Z,4.08
2019-04-01T07:04:44.252Z,4.10
2019-04-01T07:07:19.209Z,3.52
2019-04-01T07:09:46.297Z,3.00
2019-04-01T07:12:16.301Z,3.40
2019-04-01T07:14:46.415Z,4.00
2019-04-01T07:17:16.500Z,3.35
2019-04-01T07:19:46.637Z,3.40
2019-04-01T07:22:16.640Z,3.35
2019-04-01T07:24:46.586Z,2.90
2019-04-01T07:27:16.495Z,2.98
2019-04-01T07:29:46.699Z,2.70
2019-04-01T07:32:16.692Z,2.58
2019-04-01T07:34:46.724Z,2.40
2019-04-01T07:37:16.711Z,3.02
2019-04-01T07:39:46.641Z,2.42
2019-04-01T07:42:16.267Z,3.05
2019-04-01T07:44:47.125Z,2.50
2019-04-01T07:47:17.113Z,3.27
2019-04-01T07:49:47.213Z,2.95
2019-04-01T07:52:17.377Z,3.00
2019-04-01T07:54:47.330Z,3.30
2019-04-01T07:57:17.406Z,2.90
2019-04-01T07:59:47.511Z,2.35
2019-04-01T08:02:17.514Z,3.52
2019-04-01T08:04:47.548Z,3.52
2019-04-01T08:07:17.552Z,3.12
2019-04-01T08:09:47.610Z,2.75
2019-04-01T08:12:17.787Z,2.58
2019-04-01T08:14:47.870Z,2.72
2019-04-01T08:17:17.849Z,2.98
2019-04-01T08:19:47.554Z,3.27
2019-04-01T08:22:17.690Z,3.10
2019-04-01T08:24:47.890Z,3.10
2019-04-01T08:27:17.975Z,2.70
2019-04-01T08:29:51.575Z,3.02
2019-04-01T08:32:21.443Z,3.58
2019-04-01T08:34:51.370Z,3.33
2019-04-01T08:37:21.388Z,2.65
2019-04-01T08:39:51.331Z,2.37
2019-04-01T08:42:21.407Z,2.15
2019-04-01T08:44:51.370Z,2.65
2019-04-01T08:47:21.612Z,2.52
2019-04-01T08:49:51.806Z,2.37
2019-04-01T08:52:21.958Z,2.67
2019-04-01T08:54:52.428Z,2.20
2019-04-01T08:57:22.489Z,2.27
2019-04-01T08:59:56.167Z,2.22
2019-04-01T09:02:24.273Z,2.42
2019-04-01T09:04:53.879Z,2.42
2019-04-01T09:07:23.772Z,2.40
2019-04-01T09:09:54.207Z,2.22
2019-04-01T09:12:24.684Z,2.20
2019-04-01T09:14:55.828Z,2.70
2019-04-01T09:17:26.062Z,2.20
2019-04-01T09:19:55.735Z,2.00
2019-04-01T09:22:25.645Z,2.02
2019-04-01T09:24:55.230Z,2.40
2019-04-01T09:27:25.175Z,2.37
2019-04-01T09:29:56.099Z,2.50
2019-04-01T09:32:26.028Z,2.52
2019-04-01T09:34:56.111Z,2.37
2019-04-01T09:37:26.063Z,4.00
2019-04-01T09:39:55.989Z,2.33
2019-04-01T09:42:25.910Z,2.45
2019-04-01T09:44:55.837Z,2.40
2019-04-01T09:47:25.766Z,2.37
2019-04-01T09:49:55.348Z,2.12
2019-04-01T09:52:24.864Z,2.27
2019-04-01T09:54:55.319Z,2.00
2019-04-01T09:57:25.168Z,2.25
2019-04-01T09:59:54.752Z,2.17
2019-04-01T10:02:31.791Z,2.58
2019-04-01T10:04:55.466Z,2.08
2019-04-01T10:07:25.315Z,1.47
2019-04-01T10:09:55.311Z,1.80
2019-04-01T10:12:25.304Z,2.90
2019-04-01T10:14:55.383Z,2.10
2019-04-01T10:17:25.314Z,2.00
2019-04-01T10:19:55.223Z,2.20
2019-04-01T10:22:26.357Z,2.52
2019-04-01T10:24:56.405Z,2.45
2019-04-01T10:27:26.319Z,2.40
2019-04-01T10:29:56.268Z,2.30
2019-04-01T10:32:26.187Z,1.90
2019-04-01T10:34:56.093Z,2.10
2019-04-01T10:37:25.795Z,2.10
2019-04-01T10:39:55.160Z,2.80
2019-04-01T10:42:24.706Z,2.33
2019-04-01T10:44:54.338Z,2.60
2019-04-01T10:47:25.741Z,2.97
2019-04-01T10:49:55.162Z,2.47
2019-04-01T10:52:24.968Z,2.60
2019-04-01T10:54:54.887Z,2.73
2019-04-01T10:57:24.608Z,3.23
2019-04-01T10:59:57.194Z,2.83
2019-04-01T11:02:26.989Z,2.63
2019-04-01T11:04:56.682Z,3.03
2019-04-01T11:07:26.467Z,2.73
2019-04-01T11:09:56.502Z,2.67
2019-04-01T11:12:26.120Z,2.83
2019-04-01T11:14:55.757Z,2.40
2019-04-01T11:17:25.768Z,2.25
2019-04-01T11:19:55.725Z,3.50
2019-04-01T11:22:25.343Z,2.83
2019-04-01T11:24:55.274Z,2.45
2019-04-01T11:27:25.207Z,2.58
2019-04-01T11:29:55.103Z,2.77
2019-04-01T11:32:26.018Z,2.60
2019-04-01T11:34:56.274Z,2.35
2019-04-01T11:37:26.595Z,2.35
2019-04-01T11:39:56.523Z,2.30
2019-04-01T11:42:26.533Z,2.85
2019-04-01T11:44:56.371Z,2.33
2019-04-01T11:47:26.472Z,2.40
2019-04-01T11:49:56.967Z,2.60
2019-04-01T11:52:27.058Z,2.20
2019-04-01T11:54:57.182Z,2.65
2019-04-01T11:57:27.135Z,2.50
2019-04-01T11:59:57.108Z,2.60
2019-04-01T12:02:26.724Z,2.57
2019-04-01T12:04:56.654Z,2.50
2019-04-01T12:07:26.580Z,2.50
2019-04-01T12:09:59.079Z,2.30
2019-04-01T12:12:28.751Z,2.10
2019-04-01T12:14:58.662Z,1.85
2019-04-01T12:17:28.381Z,1.90
2019-04-01T12:19:58.042Z,2.20
2019-04-01T12:22:27.662Z,2.20
2019-04-01T12:24:58.173Z,2.30
2019-04-01T12:27:27.821Z,2.17
2019-04-01T12:29:57.105Z,2.20
2019-04-01T12:32:26.650Z,2.30
2019-04-01T12:34:56.548Z,1.83
2019-04-01T12:37:25.840Z,2.10
2019-04-01T12:39:55.060Z,1.87
2019-04-01T12:42:24.422Z,2.17
2019-04-01T12:44:55.089Z,2.53
2019-04-01T12:47:24.802Z,2.23
2019-04-01T12:49:54.515Z,2.20
2019-04-01T12:52:23.918Z,1.93
2019-04-01T12:54:53.158Z,2.03
2019-04-01T12:57:22.721Z,2.50
2019-04-01T12:59:53.455Z,2.00
2019-04-01T13:02:23.269Z,2.23
2019-04-01T13:04:53.065Z,2.27
2019-04-01T13:07:22.708Z,2.07
2019-04-01T13:09:52.408Z,1.97
2019-04-01T13:12:22.050Z,1.90
2019-04-01T13:14:55.307Z,1.97
2019-04-01T13:17:23.076Z,1.93
2019-04-01T13:19:52.727Z,2.57
2019-04-01T13:22:22.358Z,2.50
2019-04-01T13:24:52.014Z,2.33
2019-04-01T13:27:21.896Z,1.90
2019-04-01T13:29:52.815Z,2.30
2019-04-01T13:32:22.639Z,2.13
2019-04-01T13:34:52.536Z,2.03
2019-04-01T13:37:22.178Z,2.30
2019-04-01T13:39:52.040Z,2.93
2019-04-01T13:42:24.794Z,2.20
2019-04-01T13:44:53.016Z,2.07
2019-04-01T13:47:22.962Z,5.60
2019-04-01T13:49:52.668Z,4.73
2019-04-01T13:52:22.316Z,2.23
2019-04-01T13:54:51.952Z,1.70
2019-04-01T13:57:22.599Z,1.70
2019-04-01T13:59:52.264Z,1.90
2019-04-01T14:02:22.072Z,3.40
2019-04-01T14:04:51.787Z,2.37
2019-04-01T14:07:21.735Z,1.63
2019-04-01T14:09:55.050Z,1.30
2019-04-01T14:12:22.884Z,3.57
2019-04-01T14:14:52.511Z,5.70
2019-04-01T14:17:22.231Z,2.20
2019-04-01T14:19:51.856Z,1.87
2019-04-01T14:22:21.500Z,3.80
2019-04-01T14:24:51.143Z,9.87
2019-04-01T14:27:20.837Z,2.37
2019-04-01T14:29:50.464Z,1.60
2019-04-01T14:32:20.100Z,2.40
2019-04-01T14:34:50.445Z,1.87
2019-04-01T14:37:25.568Z,1.53
2019-04-01T14:39:51.752Z,1.57
2019-04-01T14:42:21.428Z,1.90
2019-04-01T14:44:59.023Z,1.60
2019-04-01T14:47:29.623Z,1.60
2019-04-01T14:50:00.311Z,1.83
2019-04-01T14:52:32.709Z,1.70
2019-04-01T14:55:01.454Z,2.07
2019-04-01T14:57:32.188Z,1.90
2019-04-01T15:00:01.828Z,1.80
2019-04-01T15:02:31.619Z,1.80
2019-04-01T15:05:04.666Z,1.93
2019-04-01T15:07:32.635Z,2.50
2019-04-01T15:10:02.358Z,1.60
2019-04-01T15:12:31.985Z,2.20
2019-04-01T15:15:01.633Z,1.87
2019-04-01T15:17:31.415Z,1.87
2019-04-01T15:20:01.081Z,2.07
2019-04-01T15:22:30.729Z,2.07
2019-04-01T15:25:00.338Z,5.80
2019-04-01T15:27:29.975Z,5.23
2019-04-01T15:29:59.644Z,2.30
2019-04-01T15:32:29.259Z,3.20
2019-04-01T15:34:58.887Z,7.40
2019-04-01T15:37:31.927Z,4.83
2019-04-01T15:39:59.916Z,5.10
2019-04-01T15:42:29.565Z,3.27
2019-04-01T15:44:59.196Z,3.63
2019-04-01T15:47:28.951Z,3.73
2019-04-01T15:49:58.599Z,3.30
2019-04-01T15:52:28.225Z,2.67
2019-04-01T15:54:58.122Z,3.07
2019-04-01T15:57:27.849Z,2.73
2019-04-01T15:59:57.549Z,2.53
2019-04-01T16:02:27.178Z,2.87
2019-04-01T16:04:56.793Z,1.70
2019-04-01T16:07:26.431Z,2.73
2019-04-01T16:09:56.065Z,2.90
2019-04-01T16:12:25.692Z,3.10
2019-04-01T16:14:55.334Z,4.05
2019-04-01T16:17:25.807Z,4.33
2019-04-01T16:19:56.229Z,3.90
2019-04-01T16:22:26.151Z,8.08
2019-04-01T16:24:56.110Z,6.20
2019-04-01T16:27:26.050Z,4.58
2019-04-01T16:29:55.643Z,3.60
2019-04-01T16:32:25.485Z,4.55
2019-04-01T16:34:55.141Z,3.15
2019-04-01T16:37:24.957Z,4.25
2019-04-01T16:39:54.928Z,5.75
2019-04-01T16:42:24.910Z,2.25
2019-04-01T16:44:54.916Z,3.12
2019-04-01T16:47:24.848Z,4.90
2019-04-01T16:49:54.434Z,2.10
2019-04-01T16:52:24.371Z,3.10
2019-04-01T16:54:59.540Z,3.50
2019-04-01T16:57:29.506Z,4.92
2019-04-01T16:59:59.515Z,8.65
2019-04-01T17:02:32.734Z,7.15
2019-04-01T17:05:01.092Z,6.67
2019-04-01T17:07:31.033Z,3.98
2019-04-01T17:10:00.951Z,4.05
2019-04-01T17:12:30.902Z,4.00
2019-04-01T17:15:03.447Z,4.15
2019-04-01T17:17:33.727Z,4.37
2019-04-01T17:20:05.579Z,4.83
2019-04-01T17:22:35.511Z,4.78
2019-04-01T17:25:07.146Z,4.90
2019-04-01T17:27:37.101Z,5.00
2019-04-01T17:30:08.170Z,6.20
2019-04-01T17:32:38.130Z,5.80
2019-04-01T17:35:09.014Z,6.72
2019-04-01T17:37:39.047Z,6.60
2019-04-01T17:40:09.727Z,7.30
2019-04-01T17:42:40.170Z,7.50
2019-04-01T17:45:21.875Z,7.30
2019-04-01T17:47:51.826Z,8.45
2019-04-01T17:50:21.752Z,8.75
2019-04-01T17:52:51.722Z,8.95
2019-04-01T17:55:21.754Z,8.25
2019-04-01T17:57:51.729Z,9.00
2019-04-01T18:00:24.190Z,7.90
2019-04-01T18:02:54.296Z,9.20
2019-04-01T18:05:24.262Z,8.78
2019-04-01T18:07:54.207Z,8.60
2019-04-01T18:10:24.235Z,9.25
2019-04-01T18:12:54.184Z,7.85
2019-04-01T18:15:24.368Z,9.63
2019-04-01T18:17:54.316Z,8.83
2019-04-01T18:20:24.323Z,8.18
2019-04-01T18:22:54.260Z,7.67
2019-04-01T18:25:24.264Z,6.83
2019-04-01T18:27:54.183Z,6.75
2019-04-01T18:30:24.555Z,6.45
2019-04-01T18:32:55.394Z,7.25
2019-04-01T18:35:25.756Z,6.70
2019-04-01T18:37:55.814Z,22.40
2019-04-01T18:40:32.585Z,8.40
2019-04-01T18:42:57.368Z,7.85
2019-04-01T18:45:27.331Z,7.92
2019-04-01T18:47:57.260Z,8.73
2019-04-01T18:50:27.176Z,8.43
2019-04-01T18:52:57.486Z,8.15
2019-04-01T18:55:27.510Z,8.40
2019-04-01T18:57:57.539Z,8.45
2019-04-01T19:00:27.466Z,9.28
2019-04-01T19:02:57.544Z,9.08
2019-04-01T19:05:27.585Z,8.73
2019-04-01T19:07:57.681Z,8.60
2019-04-01T19:10:27.627Z,9.68
2019-04-01T19:13:05.722Z,9.00
2019-04-01T19:15:29.832Z,9.98
2019-04-01T19:18:01.963Z,11.50
2019-04-01T19:20:31.991Z,33.00
2019-04-01T19:23:02.188Z,18.73
2019-04-01T19:25:32.814Z,15.25
2019-04-01T19:28:02.831Z,13.75
2019-04-01T19:30:32.836Z,11.93
2019-04-01T19:33:02.789Z,11.33
2019-04-01T19:35:33.120Z,11.90
2019-04-01T19:38:03.427Z,13.03
2019-04-01T19:40:33.364Z,11.05
2019-04-01T19:43:03.744Z,10.75
2019-04-01T19:45:33.913Z,9.68
2019-04-01T19:48:03.926Z,9.25
2019-04-01T19:50:33.904Z,9.10
2019-04-01T19:53:03.845Z,9.53
2019-04-01T19:55:34.408Z,9.40
2019-04-01T19:58:05.312Z,9.20
2019-04-01T20:00:36.399Z,9.05
2019-04-01T20:03:06.404Z,8.63
2019-04-01T20:05:36.465Z,8.60
2019-04-01T20:08:06.410Z,7.72
2019-04-01T20:10:36.355Z,8.10
2019-04-01T20:13:06.286Z,7.65
2019-04-01T20:15:36.305Z,7.20
2019-04-01T20:18:08.388Z,7.42
2019-04-01T20:20:41.283Z,8.28
2019-04-01T20:23:10.036Z,8.10
2019-04-01T20:25:39.956Z,7.37
2019-04-01T20:28:09.915Z,8.43
2019-04-01T20:30:42.601Z,7.78
2019-04-01T20:33:18.163Z,7.55
2019-04-01T20:35:44.340Z,8.33
2019-04-01T20:38:14.267Z,8.23
2019-04-01T20:40:44.220Z,8.25
2019-04-01T20:43:15.159Z,8.00
2019-04-01T20:45:45.436Z,8.98
2019-04-01T20:48:15.393Z,9.33
2019-04-01T20:50:45.341Z,8.65
2019-04-01T20:53:15.502Z,9.23
2019-04-01T20:55:48.406Z,8.35
2019-04-01T20:58:17.734Z,9.18
2019-04-01T21:00:47.725Z,8.85
2019-04-01T21:03:17.892Z,8.70
2019-04-01T21:05:48.889Z,8.78
2019-04-01T21:08:18.951Z,9.10
2019-04-01T21:10:49.126Z,9.48
2019-04-01T21:13:19.180Z,10.32
2019-04-01T21:15:49.491Z,10.30
2019-04-01T21:18:20.059Z,9.08
2019-04-01T21:20:50.263Z,10.80
2019-04-01T21:23:20.416Z,11.28
2019-04-01T21:25:51.640Z,10.45
2019-04-01T21:28:23.949Z,12.07
2019-04-01T21:30:53.762Z,11.38
2019-04-01T21:33:23.748Z,12.03
2019-04-01T21:35:53.791Z,11.75
2019-04-01T21:38:24.767Z,11.83
2019-04-01T21:40:56.355Z,11.88
2019-04-01T21:43:27.627Z,11.55
2019-04-01T21:45:57.812Z,11.22
2019-04-01T21:48:27.794Z,11.35
2019-04-01T21:50:57.809Z,11.35
2019-04-01T21:53:28.075Z,10.93
2019-04-01T21:55:58.106Z,11.18
2019-04-01T21:58:28.185Z,11.63
2019-04-01T22:00:59.633Z,10.95
2019-04-01T22:03:31.305Z,10.95
2019-04-01T22:06:01.326Z,11.20
2019-04-01T22:08:31.656Z,10.98
2019-04-01T22:11:01.692Z,11.83
2019-04-01T22:13:31.939Z,10.72
2019-04-01T22:16:01.933Z,11.28
2019-04-01T22:18:33.033Z,11.20
2019-04-01T22:21:03.038Z,12.37
2019-04-01T22:23:33.048Z,11.83
2019-04-01T22:26:03.106Z,12.43
2019-04-01T22:28:33.298Z,11.73
2019-04-01T22:31:03.258Z,12.55
2019-04-01T22:33:34.385Z,12.07
2019-04-01T22:36:04.326Z,11.45
2019-04-01T22:38:35.133Z,10.65
2019-04-01T22:41:06.565Z,11.57
2019-04-01T22:43:36.569Z,11.33
2019-04-01T22:46:06.239Z,12.33
2019-04-01T22:48:36.108Z,12.85
2019-04-01T22:51:08.373Z,12.55
2019-04-01T22:53:37.775Z,12.53
2019-04-01T22:56:08.804Z,13.43
2019-04-01T22:58:38.750Z,13.38
2019-04-01T23:01:08.685Z,13.35
2019-04-01T23:03:40.010Z,12.03
2019-04-01T23:06:10.155Z,11.43
2019-04-01T23:08:40.122Z,11.88
2019-04-01T23:11:10.123Z,11.45
2019-04-01T23:13:40.131Z,11.10
2019-04-01T23:16:10.173Z,11.43
2019-04-01T23:18:40.181Z,10.70
2019-04-01T23:21:10.371Z,11.78
2019-04-01T23:23:40.548Z,11.30
2019-04-01T23:26:10.517Z,10.40
2019-04-01T23:28:40.755Z,10.68
2019-04-01T23:31:10.729Z,11.18
2019-04-01T23:33:40.835Z,10.80
2019-04-01T23:36:12.315Z,10.63
2019-04-01T23:38:42.883Z,11.08
2019-04-01T23:41:12.833Z,11.38
2019-04-01T23:43:42.988Z,12.07
2019-04-01T23:46:12.943Z,12.05
2019-04-01T23:48:43.237Z,11.05
2019-04-01T23:51:13.190Z,11.65
2019-04-01T23:53:43.488Z,11.43
2019-04-01T23:56:13.463Z,11.73
2019-04-01T23:58:43.419Z,11.10
